Sichem Eagle — 9HRB9 — position and weather

sailwx.info

Track history (hours):
 
Tides and Currents Weather Stations Pressure Air Temp Water Temp Dewpoint Dewpoint Depression Visibility Wind Speed Wind Dir Waves Ship Positions

Sichem Eagle

Last reported at 2017-Oct-19 14:57 UTC. Time now 2017-Oct-19 15:08 UTC.
Position N 37°33' W 001°05'.

Length 171 m; draft 7.3 m.

Type: Tanker. MMSI: 249512000.

Date/timePositionNaut miles runAvg speedWind from/ knotsBaromVisibWave heightAir tempDewpointWater temp
2017-Oct-19 14:57N 37°33' W 001°05'1 2.8
2017-Oct-19 14:29N 37°32' W 001°04'3 5.2
2017-Oct-19 13:57N 37°30' W 001°02'4 9.9
2017-Oct-19 13:30N 37°27' W 000°58'612.3
2017-Oct-19 13:00N 37°22' W 000°52'612.1
2017-Oct-19 12:29N 37°17' W 000°49'4 8.5
2017-Oct-19 12:00N 37°13' W 000°46'0 1.0
2017-Oct-19 11:30N 37°13' W 000°47'1 1.2
2017-Oct-19 10:59N 37°12' W 000°47'1 0.9
2017-Oct-19 10:19N 37°12' W 000°48'0 1.2
2017-Oct-19 10:00N 37°12' W 000°48'0 0.7
2017-Oct-19 09:30N 37°12' W 000°47'1 0.8
2017-Oct-19 08:26N 37°12' W 000°48'0 0.5
2017-Oct-19 07:43N 37°12' W 000°48'0 0.5
2017-Oct-19 07:30N 37°12' W 000°48'0 0.7
2017-Oct-19 07:00N 37°12' W 000°47'1 1.3
2017-Oct-19 06:30N 37°11' W 000°47'1 1.7
2017-Oct-19 06:00N 37°11' W 000°46'0 0.6
2017-Oct-19 05:30N 37°11' W 000°46'0 0.5
2017-Oct-19 05:00N 37°11' W 000°46'1 1.1
2017-Oct-19 04:30N 37°11' W 000°47'0 0.8
2017-Oct-19 04:00N 37°11' W 000°48'1 1.3
2017-Oct-19 03:25N 37°11' W 000°48'4 1.8
2017-Oct-19 01:24N 37°13' W 000°53'2 2.2
2017-Oct-19 00:41N 37°13' W 000°54'1 2.4
2017-Oct-19 00:14N 37°13' W 000°56'11 2.0
2017-Oct-18 18:34N 37°12' W 001°10'0 2.0
2017-Oct-18 18:30N 37°12' W 001°10'1 1.8
2017-Oct-18 18:00N 37°12' W 001°11'3 5.4
2017-Oct-18 17:30N 37°12' W 001°07'1 2.0
2017-Oct-18 16:52N 37°12' W 001°06'1 1.5
2017-Oct-18 16:26N 37°11' W 001°07'205 4.9
2017-Oct-16 22:46N 36°01' W 005°07'413.6
2017-Oct-16 22:30N 36°00' W 005°11'713.7
2017-Oct-16 22:00N 35°59' W 005°20'713.2
2017-Oct-16 21:30N 35°57' W 005°27'712.2
2017-Oct-16 20:58N 35°55' W 005°35'510.4
2017-Oct-16 20:27N 35°55' W 005°42'4 9.7
2017-Oct-16 20:00N 35°55' W 005°47'  
2017-Oct-10 20:25N 36°04' W 006°17'0 0.0
2017-Oct-10 19:52N 36°04' W 006°17'0 0.1
2017-Oct-10 19:28N 36°04' W 006°17'0 0.0
2017-Oct-10 19:01N 36°04' W 006°17'0 0.0
2017-Oct-10 18:19N 36°04' W 006°17'0 0.0
2017-Oct-10 18:01N 36°04' W 006°17'0 0.0
2017-Oct-10 17:22N 36°04' W 006°17'0 0.0
2017-Oct-10 16:58N 36°04' W 006°17'0 0.0
2017-Oct-10 16:28N 36°04' W 006°17'0 0.0
2017-Oct-10 15:49N 36°04' W 006°17'0 0.0
2017-Oct-10 15:13N 36°04' W 006°17'0 0.0
2017-Oct-10 14:46N 36°04' W 006°17'0 0.0
2017-Oct-10 11:55N 36°04' W 006°17'0 0.0
2017-Oct-10 08:31N 36°04' W 006°17'0 0.0
2017-Oct-10 07:43N 36°04' W 006°17'  
Track history (hours):
 
Tides and Currents Weather Stations Pressure Air Temp Water Temp Dewpoint Dewpoint Depression Visibility Wind Speed Wind Dir Waves Ship Positions

Sichem Eagle

Last reported at 2017-Oct-19 14:57 UTC. Time now 2017-Oct-19 15:08 UTC.
Position N 37°33' W 001°05'.

Length 171 m; draft 7.3 m.

Type: Tanker. MMSI: 249512000.

Date/timePositionNaut miles runAvg speedWind from/ knotsBaromVisibWave heightAir tempDewpointWater temp
2017-Oct-19 14:57N 37°33' W 001°05'1 2.8
2017-Oct-19 14:29N 37°32' W 001°04'3 5.2
2017-Oct-19 13:57N 37°30' W 001°02'4 9.9
2017-Oct-19 13:30N 37°27' W 000°58'612.3
2017-Oct-19 13:00N 37°22' W 000°52'612.1
2017-Oct-19 12:29N 37°17' W 000°49'4 8.5
2017-Oct-19 12:00N 37°13' W 000°46'0 1.0
2017-Oct-19 11:30N 37°13' W 000°47'1 1.2
2017-Oct-19 10:59N 37°12' W 000°47'1 0.9
2017-Oct-19 10:19N 37°12' W 000°48'0 1.2
2017-Oct-19 10:00N 37°12' W 000°48'0 0.7
2017-Oct-19 09:30N 37°12' W 000°47'1 0.8
2017-Oct-19 08:26N 37°12' W 000°48'0 0.5
2017-Oct-19 07:43N 37°12' W 000°48'0 0.5
2017-Oct-19 07:30N 37°12' W 000°48'0 0.7
2017-Oct-19 07:00N 37°12' W 000°47'1 1.3
2017-Oct-19 06:30N 37°11' W 000°47'1 1.7
2017-Oct-19 06:00N 37°11' W 000°46'0 0.6
2017-Oct-19 05:30N 37°11' W 000°46'0 0.5
2017-Oct-19 05:00N 37°11' W 000°46'1 1.1
2017-Oct-19 04:30N 37°11' W 000°47'0 0.8
2017-Oct-19 04:00N 37°11' W 000°48'1 1.3
2017-Oct-19 03:25N 37°11' W 000°48'4 1.8
2017-Oct-19 01:24N 37°13' W 000°53'2 2.2
2017-Oct-19 00:41N 37°13' W 000°54'1 2.4
2017-Oct-19 00:14N 37°13' W 000°56'11 2.0
2017-Oct-18 18:34N 37°12' W 001°10'0 2.0
2017-Oct-18 18:30N 37°12' W 001°10'1 1.8
2017-Oct-18 18:00N 37°12' W 001°11'3 5.4
2017-Oct-18 17:30N 37°12' W 001°07'1 2.0
2017-Oct-18 16:52N 37°12' W 001°06'1 1.5
2017-Oct-18 16:26N 37°11' W 001°07'205 4.9
2017-Oct-16 22:46N 36°01' W 005°07'413.6
2017-Oct-16 22:30N 36°00' W 005°11'713.7
2017-Oct-16 22:00N 35°59' W 005°20'713.2
2017-Oct-16 21:30N 35°57' W 005°27'712.2
2017-Oct-16 20:58N 35°55' W 005°35'510.4
2017-Oct-16 20:27N 35°55' W 005°42'4 9.7
2017-Oct-16 20:00N 35°55' W 005°47'  
2017-Oct-10 20:25N 36°04' W 006°17'0 0.0
2017-Oct-10 19:52N 36°04' W 006°17'0 0.1
2017-Oct-10 19:28N 36°04' W 006°17'0 0.0
2017-Oct-10 19:01N 36°04' W 006°17'0 0.0
2017-Oct-10 18:19N 36°04' W 006°17'0 0.0
2017-Oct-10 18:01N 36°04' W 006°17'0 0.0
2017-Oct-10 17:22N 36°04' W 006°17'0 0.0
2017-Oct-10 16:58N 36°04' W 006°17'0 0.0
2017-Oct-10 16:28N 36°04' W 006°17'0 0.0
2017-Oct-10 15:49N 36°04' W 006°17'0 0.0
2017-Oct-10 15:13N 36°04' W 006°17'0 0.0
2017-Oct-10 14:46N 36°04' W 006°17'0 0.0
2017-Oct-10 11:55N 36°04' W 006°17'0 0.0
2017-Oct-10 08:31N 36°04' W 006°17'0 0.0
2017-Oct-10 07:43N 36°04' W 006°17'  

Dump ship's entire track history